Time;durP1;ratioP1;P1;durP2;ratioP2;P2;SDS_P1;SDS_P2;PMS_P1;PMS_P2;Temp;Humidity;BMP_temperature;BMP_pressure;BME280_temperature;BME280_humidity;BME280_pressure;Samples;Min_cycle;Max_cycle;Signal;HPM_P1;HPM_P2
2023/01/12 00:02:14;;;;;;;;;;;;;;;;;;5075931;28;19931;-44
2023/01/12 00:04:39;;;;;;;;;;;;;;;;;;5075538;28;19923;-45
2023/01/12 00:07:05;;;;;;;;;;;;;;;;;;5077520;28;19920;-45
2023/01/12 00:09:31;;;;;;;;;;;;;;;;;;5078397;28;20296;-44
2023/01/12 00:11:56;;;;;;;;;;;;;;;;;;5077642;28;19928;-44
2023/01/12 00:14:21;;;;;;;;;;;;;;;;;;5070590;28;20015;-49
2023/01/12 00:16:47;;;;;;;;;;;;;;;;;;5077392;28;19920;-43
2023/01/12 00:19:16;;;;;;;;;;;;;;;;;;5073736;28;19939;-45
2023/01/12 00:21:48;;;;;;;;;;;;;;;;;;5076090;28;19920;-43
2023/01/12 00:24:15;;;;;;;;;;;;;;;;;;5077440;28;19931;-45
2023/01/12 00:26:40;;;;;;;;;;;;;;;;;;5070803;28;19920;-44
2023/01/12 00:29:06;;;;;;;;;;;;;;;;;;5077744;28;20521;-45
2023/01/12 00:31:31;;;;;;;;;;;;;;;;;;5074045;28;19929;-44
2023/01/12 00:33:56;;;;;;;;;;;;;;;;;;5072555;28;19924;-43
2023/01/12 00:36:21;;;;;;;;;;;;;;;;;;5081754;28;19924;-45
2023/01/12 00:38:47;;;;;;;;;;;;;;;;;;5076434;28;19928;-45
2023/01/12 00:45:20;;;;;;;;;;;;;;;;;;5071040;28;19920;-43
2023/01/12 00:46:44;;;;;;;;;;;;;;;;;;5081301;28;19973;-43
2023/01/12 00:49:09;;;;;;;;;;;;;;;;;;5074935;28;20409;-47
2023/01/12 00:51:35;;;;;;;;;;;;;;;;;;5074637;28;19920;-43
2023/01/12 00:54:03;;;;;;;;;;;;;;;;;;5071445;28;20021;-45
2023/01/12 00:56:29;;;;;;;;;;;;;;;;;;5078662;28;19928;-43
2023/01/12 00:58:54;;;;;;;;;;;;;;;;;;5072179;28;20312;-44
2023/01/12 01:01:19;;;;;;;;;;;;;;;;;;5075051;28;19967;-44
2023/01/12 01:03:44;;;;;;;;;;;;;;;;;;5074206;28;19935;-43
2023/01/12 01:06:10;;;;;;;;;;;;;;;;;;5077874;28;20292;-44
2023/01/12 01:08:36;;;;;;;;;;;;;;;;;;5079149;28;19924;-46
2023/01/12 01:11:02;;;;;;;;;;;;;;;;;;5077422;28;20324;-44
2023/01/12 01:13:27;;;;;;;;;;;;;;;;;;5071952;28;19931;-43
2023/01/12 01:15:53;;;;;;;;;;;;;;;;;;5071539;28;19924;-43
2023/01/12 01:18:18;;;;;;;;;;;;;;;;;;5074088;28;20596;-43
2023/01/12 01:20:46;;;;;;;;;;;;;;;;;;5076042;28;19920;-43
2023/01/12 01:23:11;;;;;;;;;;;;;;;;;;5075241;28;19925;-43
2023/01/12 01:25:37;;;;;;;;;;;;;;;;;;5074075;28;19925;-43
2023/01/12 01:28:02;;;;;;;;;;;;;;;;;;5076033;28;20408;-45
2023/01/12 01:30:27;;;;;;;;;;;;;;;;;;5069641;28;19916;-43
2023/01/12 01:32:52;;;;;;;;;;;;;;;;;;5076507;28;19924;-45
2023/01/12 01:35:18;;;;;;;;;;;;;;;;;;5073817;28;20327;-44
2023/01/12 01:37:43;;;;;;;;;;;;;;;;;;5074201;28;19924;-44
2023/01/12 01:40:09;;;;;;;;;;;;;;;;;;5077074;28;19958;-48
2023/01/12 01:42:34;;;;;;;;;;;;;;;;;;5075886;28;19930;-43
2023/01/12 01:45:00;;;;;;;;;;;;;;;;;;5074136;28;19966;-44
2023/01/12 01:47:27;;;;;;;;;;;;;;;;;;5075017;28;20046;-43
2023/01/12 01:49:55;;;;;;;;;;;;;;;;;;5073161;28;20365;-46
2023/01/12 01:52:29;;;;;;;;;;;;;;;;;;5073061;28;19924;-44
2023/01/12 01:54:57;;;;;;;;;;;;;;;;;;5073134;28;20384;-44
2023/01/12 01:57:25;;;;;;;;;;;;;;;;;;5075392;28;19920;-43
2023/01/12 01:59:51;;;;;;;;;;;;;;;;;;5072459;28;19912;-46
2023/01/12 02:02:17;;;;;;;;;;;;;;;;;;5070577;28;19920;-52
2023/01/12 02:04:42;;;;;;;;;;;;;;;;;;5075858;28;19921;-43
2023/01/12 02:07:08;;;;;;;;;;;;;;;;;;5080842;28;20335;-44
2023/01/12 02:09:33;;;;;;;;;;;;;;;;;;5075896;28;20011;-42
2023/01/12 02:17:29;;;;;;;;;;;;;;;;;;5071966;28;19943;-43
2023/01/12 02:19:58;;;;;;;;;;;;;;;;;;5074317;28;19928;-43
2023/01/12 02:22:23;;;;;;;;;;;;;;;;;;5073603;28;19949;-44
2023/01/12 02:25:00;;;;;;;;;;;;;;;;;;5077899;28;20371;-43
2023/01/12 02:27:32;;;;;;;;;;;;;;;;;;5076570;28;20470;-49
2023/01/12 02:30:16;;;;;;;;;;;;;;;;;;5075158;28;19922;-51
2023/01/12 02:33:01;;;;;;;;;;;;;;;;;;5077403;28;19936;-47
2023/01/12 02:35:29;;;;;;;;;;;;;;;;;;5074632;28;19927;-44
2023/01/12 02:37:54;;;;;;;;;;;;;;;;;;5081173;28;19924;-43
2023/01/12 02:40:19;;;;;;;;;;;;;;;;;;5078039;28;20403;-44
2023/01/12 02:42:53;;;;;;;;;;;;;;;;;;5075068;28;20003;-46
2023/01/12 02:45:21;;;;;;;;;;;;;;;;;;5077206;28;20444;-44
2023/01/12 02:47:47;;;;;;;;;;;;;;;;;;5078981;28;20415;-43
2023/01/12 02:50:13;;;;;;;;;;;;;;;;;;5079866;28;19916;-49
2023/01/12 02:52:42;;;;;;;;;;;;;;;;;;5075519;28;19928;-46
2023/01/12 02:55:08;;;;;;;;;;;;;;;;;;5078569;28;19939;-49
2023/01/12 02:57:33;;;;;;;;;;;;;;;;;;5075265;28;20400;-43
2023/01/12 03:00:00;;;;;;;;;;;;;;;;;;5079136;28;20022;-49
2023/01/12 03:02:26;;;;;;;;;;;;;;;;;;5071189;28;19920;-43
2023/01/12 03:04:52;;;;;;;;;;;;;;;;;;5077323;28;19934;-48
2023/01/12 03:07:28;;;;;;;;;;;;;;;;;;5073913;28;20007;-43
2023/01/12 03:09:57;;;;;;;;;;;;;;;;;;5082192;28;19925;-48
2023/01/12 03:12:25;;;;;;;;;;;;;;;;;;5078077;28;19923;-45
2023/01/12 03:14:52;;;;;;;;;;;;;;;;;;5077647;28;19931;-47
2023/01/12 03:17:30;;;;;;;;;;;;;;;;;;5071208;28;20006;-47
2023/01/12 03:20:01;;;;;;;;;;;;;;;;;;5082666;28;20351;-43
2023/01/12 03:22:26;;;;;;;;;;;;;;;;;;5072791;28;20011;-49
2023/01/12 03:24:54;;;;;;;;;;;;;;;;;;5078826;28;20026;-48
2023/01/12 03:27:24;;;;;;;;;;;;;;;;;;5080037;28;19982;-46
2023/01/12 03:29:59;;;;;;;;;;;;;;;;;;5073951;28;19928;-46
2023/01/12 03:32:25;;;;;;;;;;;;;;;;;;5073297;28;20062;-44
2023/01/12 03:34:51;;;;;;;;;;;;;;;;;;5077114;28;20010;-45
2023/01/12 03:37:23;;;;;;;;;;;;;;;;;;5075422;28;20742;-49
2023/01/12 03:39:54;;;;;;;;;;;;;;;;;;5077633;28;20428;-45
2023/01/12 03:42:24;;;;;;;;;;;;;;;;;;5074120;28;19927;-45
2023/01/12 03:45:00;;;;;;;;;;;;;;;;;;5075752;28;20273;-44
2023/01/12 03:47:27;;;;;;;;;;;;;;;;;;5073490;28;20450;-47
2023/01/12 03:50:08;;;;;;;;;;;;;;;;;;5077287;28;19978;-44
2023/01/12 03:52:36;;;;;;;;;;;;;;;;;;5070544;28;19928;-44
2023/01/12 03:55:02;;;;;;;;;;;;;;;;;;5080863;28;20000;-47
2023/01/12 03:57:27;;;;;;;;;;;;;;;;;;5077291;28;19931;-47
2023/01/12 03:59:53;;;;;;;;;;;;;;;;;;5078311;28;19920;-49
2023/01/12 04:02:20;;;;;;;;;;;;;;;;;;5078792;28;19927;-52
2023/01/12 04:04:45;;;;;;;;;;;;;;;;;;5077251;28;20368;-46
2023/01/12 04:07:10;;;;;;;;;;;;;;;;;;5080300;28;19926;-47
2023/01/12 04:09:36;;;;;;;;;;;;;;;;;;5082035;28;19924;-46
2023/01/12 04:12:10;;;;;;;;;;;;;;;;;;5076359;28;19935;-43
2023/01/12 04:14:36;;;;;;;;;;;;;;;;;;5068578;28;20372;-43
2023/01/12 04:17:01;;;;;;;;;;;;;;;;;;5078292;28;19943;-48
2023/01/12 04:19:27;;;;;;;;;;;;;;;;;;5075532;28;19927;-43
2023/01/12 04:24:36;;;;;;;;;;;;;;;;;;5076538;28;19931;-43
2023/01/12 04:27:01;;;;;;;;;;;;;;;;;;5072714;28;19920;-43
2023/01/12 04:29:26;;;;;;;;;;;;;;;;;;5076552;28;19963;-45
2023/01/12 04:31:52;;;;;;;;;;;;;;;;;;5077047;28;19964;-45
2023/01/12 04:34:17;;;;;;;;;;;;;;;;;;5052821;28;20016;-45
2023/01/12 04:36:43;;;;;;;;;;;;;;;;;;5055445;28;20010;-44
2023/01/12 04:39:08;;;;;;;;;;;;;;;;;;5072136;28;19979;-44
2023/01/12 04:41:33;;;;;;;;;;;;;;;;;;5048919;28;19966;-44
2023/01/12 04:43:59;;;;;;;;;;;;;;;;;;5059295;28;19940;-44
2023/01/12 04:46:24;;;;;;;;;;;;;;;;;;5068424;28;19925;-44
2023/01/12 04:48:49;;;;;;;;;;;;;;;;;;5065594;28;19931;-43
2023/01/12 04:51:14;;;;;;;;;;;;;;;;;;5062595;28;19936;-43
2023/01/12 04:53:40;;;;;;;;;;;;;;;;;;5069620;28;19943;-44
2023/01/12 04:56:05;;;;;;;;;;;;;;;;;;5069548;28;20581;-43
2023/01/12 04:58:31;;;;;;;;;;;;;;;;;;5064396;28;19924;-43
2023/01/12 05:00:56;;;;;;;;;;;;;;;;;;5067317;28;20633;-46
2023/01/12 05:03:22;;;;;;;;;;;;;;;;;;5067519;28;19936;-45
2023/01/12 05:05:47;;;;;;;;;;;;;;;;;;5074392;28;19927;-46
2023/01/12 05:10:57;;;;;;;;;;;;;;;;;;5067969;28;19966;-46
2023/01/12 05:13:23;;;;;;;;;;;;;;;;;;5076248;28;20343;-47
2023/01/12 05:15:49;;;;;;;;;;;;;;;;;;5066797;28;19959;-45
2023/01/12 05:18:14;;;;;;;;;;;;;;;;;;5064780;28;20381;-44
2023/01/12 05:20:40;;;;;;;;;;;;;;;;;;5068636;28;19966;-44
2023/01/12 05:23:05;;;;;;;;;;;;;;;;;;5067059;28;19924;-46
2023/01/12 05:25:31;;;;;;;;;;;;;;;;;;5064718;28;19974;-49
2023/01/12 05:27:57;;;;;;;;;;;;;;;;;;5057472;28;19932;-46
2023/01/12 05:30:22;;;;;;;;;;;;;;;;;;5057998;28;19924;-49
2023/01/12 05:32:48;;;;;;;;;;;;;;;;;;5062474;28;20304;-44
2023/01/12 05:35:13;;;;;;;;;;;;;;;;;;5065519;28;20452;-49
2023/01/12 05:37:38;;;;;;;;;;;;;;;;;;5063730;28;19974;-52
2023/01/12 05:40:04;;;;;;;;;;;;;;;;;;5067497;28;20403;-48
2023/01/12 05:45:13;;;;;;;;;;;;;;;;;;5068402;28;19927;-48
2023/01/12 05:47:38;;;;;;;;;;;;;;;;;;5065985;28;19924;-44
2023/01/12 05:50:04;;;;;;;;;;;;;;;;;;5064564;28;19987;-43
2023/01/12 05:52:29;;;;;;;;;;;;;;;;;;5066310;28;19928;-44
2023/01/12 05:54:55;;;;;;;;;;;;;;;;;;5062625;28;20113;-43
2023/01/12 05:57:20;;;;;;;;;;;;;;;;;;5065165;28;20299;-43
2023/01/12 05:59:45;;;;;;;;;;;;;;;;;;5063293;28;19966;-44
2023/01/12 06:02:10;;;;;;;;;;;;;;;;;;5062098;28;19920;-44
2023/01/12 06:04:36;;;;;;;;;;;;;;;;;;5062015;28;19929;-44
2023/01/12 06:07:01;;;;;;;;;;;;;;;;;;5063455;28;19929;-43
2023/01/12 06:09:27;;;;;;;;;;;;;;;;;;5064628;28;19993;-47
2023/01/12 06:14:35;;;;;;;;;;;;;;;;;;5065577;28;19982;-43
2023/01/12 06:17:01;;;;;;;;;;;;;;;;;;5065829;28;20854;-44
2023/01/12 06:19:26;;;;;;;;;;;;;;;;;;5063694;28;19924;-44
2023/01/12 06:21:53;;;;;;;;;;;;;;;;;;5066209;28;20014;-45
2023/01/12 06:24:18;;;;;;;;;;;;;;;;;;5062687;28;19924;-43
2023/01/12 06:26:44;;;;;;;;;;;;;;;;;;5057256;28;19931;-43
2023/01/12 06:29:09;;;;;;;;;;;;;;;;;;5058425;28;19976;-43
2023/01/12 06:31:35;;;;;;;;;;;;;;;;;;5064621;28;19927;-44
2023/01/12 06:34:01;;;;;;;;;;;;;;;;;;5058826;28;21217;-43
2023/01/12 06:36:26;;;;;;;;;;;;;;;;;;5078457;28;20332;-45
2023/01/12 06:38:51;;;;;;;;;;;;;;;;;;5065415;28;20383;-44
2023/01/12 06:44:01;;;;;;;;;;;;;;;;;;5061739;28;19979;-49
2023/01/12 06:46:26;;;;;;;;;;;;;;;;;;5062315;28;19952;-43
2023/01/12 06:48:53;;;;;;;;;;;;;;;;;;5064287;28;19928;-43
2023/01/12 06:51:19;;;;;;;;;;;;;;;;;;5065794;28;20015;-43
2023/01/12 06:53:44;;;;;;;;;;;;;;;;;;5062161;28;20015;-45
2023/01/12 06:56:09;;;;;;;;;;;;;;;;;;5060182;28;20525;-44
2023/01/12 06:58:34;;;;;;;;;;;;;;;;;;5065060;28;19929;-43
2023/01/12 07:01:00;;;;;;;;;;;;;;;;;;5066392;28;19932;-43
2023/01/12 07:03:25;;;;;;;;;;;;;;;;;;5064688;28;19986;-43
2023/01/12 07:05:51;;;;;;;;;;;;;;;;;;5065632;28;19931;-45
2023/01/12 07:08:18;;;;;;;;;;;;;;;;;;5062544;28;19932;-43
2023/01/12 07:10:43;;;;;;;;;;;;;;;;;;5054863;28;19924;-45
2023/01/12 07:13:08;;;;;;;;;;;;;;;;;;5055239;28;19989;-45
2023/01/12 07:15:34;;;;;;;;;;;;;;;;;;5056541;28;19929;-43
2023/01/12 07:17:59;;;;;;;;;;;;;;;;;;5064631;28;19933;-45
2023/01/12 07:20:25;;;;;;;;;;;;;;;;;;5061343;28;19939;-43
2023/01/12 07:22:50;;;;;;;;;;;;;;;;;;5064835;28;19939;-43
2023/01/12 07:25:15;;;;;;;;;;;;;;;;;;5069245;28;19924;-43
2023/01/12 07:27:48;;;;;;;;;;;;;;;;;;5067176;28;19947;-45
2023/01/12 07:30:13;;;;;;;;;;;;;;;;;;5058223;28;19970;-43
2023/01/12 07:32:39;;;;;;;;;;;;;;;;;;5070111;28;19932;-47
2023/01/12 07:35:04;;;;;;;;;;;;;;;;;;5065157;28;19921;-43
2023/01/12 07:37:29;;;;;;;;;;;;;;;;;;5065255;28;19963;-45
2023/01/12 07:39:55;;;;;;;;;;;;;;;;;;5069498;28;19959;-42
2023/01/12 07:42:23;;;;;;;;;;;;;;;;;;5064210;28;19920;-44
2023/01/12 07:44:48;;;;;;;;;;;;;;;;;;5070412;28;19920;-44
2023/01/12 07:47:13;;;;;;;;;;;;;;;;;;5067835;28;20266;-44
2023/01/12 07:49:39;;;;;;;;;;;;;;;;;;5066518;28;19973;-43
2023/01/12 07:52:04;;;;;;;;;;;;;;;;;;5069184;28;19983;-49
2023/01/12 07:54:29;;;;;;;;;;;;;;;;;;5068719;28;19932;-43
2023/01/12 07:56:55;;;;;;;;;;;;;;;;;;5070035;28;19920;-43
2023/01/12 07:59:20;;;;;;;;;;;;;;;;;;5067535;28;20404;-44
2023/01/12 08:01:45;;;;;;;;;;;;;;;;;;5069462;28;19921;-43
2023/01/12 08:04:11;;;;;;;;;;;;;;;;;;5067383;28;20488;-44
2023/01/12 08:06:36;;;;;;;;;;;;;;;;;;5069493;28;19967;-43
2023/01/12 08:09:01;;;;;;;;;;;;;;;;;;5062858;28;19960;-46
2023/01/12 08:11:27;;;;;;;;;;;;;;;;;;5068917;28;20331;-46
2023/01/12 08:13:53;;;;;;;;;;;;;;;;;;5068224;28;19935;-42
2023/01/12 08:16:21;;;;;;;;;;;;;;;;;;5069439;28;19924;-44
2023/01/12 08:19:04;;;;;;;;;;;;;;;;;;5065632;28;19924;-43
2023/01/12 08:21:32;;;;;;;;;;;;;;;;;;5063398;28;19945;-47
2023/01/12 08:23:59;;;;;;;;;;;;;;;;;;5063557;28;19928;-43
2023/01/12 08:26:27;;;;;;;;;;;;;;;;;;5064380;28;20010;-42
2023/01/12 08:28:55;;;;;;;;;;;;;;;;;;5065412;28;19985;-47
2023/01/12 08:31:21;;;;;;;;;;;;;;;;;;5066039;28;19960;-47
2023/01/12 08:33:47;;;;;;;;;;;;;;;;;;5067444;28;19963;-46
2023/01/12 08:36:13;;;;;;;;;;;;;;;;;;5068949;28;19932;-46
2023/01/12 08:38:39;;;;;;;;;;;;;;;;;;5067316;28;19948;-43
2023/01/12 08:46:53;;;;;;;;;;;;;;;;;;5004213;28;19925;-43
2023/01/12 08:49:24;;;;;;;;;;;;;;;;;;5003641;28;20016;-43
2023/01/12 08:51:49;;;;;;;;;;;;;;;;;;5002452;28;19945;-44
2023/01/12 08:54:15;;;;;;;;;;;;;;;;;;5005552;28;19933;-45
2023/01/12 08:56:41;;;;;;;;;;;;;;;;;;5002392;28;19918;-43
2023/01/12 08:59:06;;;;;;;;;;;;;;;;;;4999040;28;19925;-44
2023/01/12 09:01:32;;;;;;;;;;;;;;;;;;5002636;28;19937;-43
2023/01/12 09:03:58;;;;;;;;;;;;;;;;;;5006466;28;19926;-43
2023/01/12 09:06:24;;;;;;;;;;;;;;;;;;5002070;28;20444;-44
2023/01/12 09:08:55;;;;;;;;;;;;;;;;;;5004257;28;19925;-50
2023/01/12 09:11:21;;;;;;;;;;;;;;;;;;5011927;28;20394;-43
2023/01/12 09:13:46;;;;;;;;;;;;;;;;;;5004325;28;19925;-43
2023/01/12 09:16:13;;;;;;;;;;;;;;;;;;5008922;28;20707;-43
2023/01/12 09:18:39;;;;;;;;;;;;;;;;;;5007256;28;20019;-44
2023/01/12 09:21:06;;;;;;;;;;;;;;;;;;5043705;28;20063;-43
2023/01/12 09:23:31;;;;;;;;;;;;;;;;;;5065703;28;19936;-49
2023/01/12 09:26:00;;;;;;;;;;;;;;;;;;5067533;28;19921;-50
2023/01/12 09:28:26;;;;;;;;;;;;;;;;;;5064810;28;20027;-44
2023/01/12 09:30:51;;;;;;;;;;;;;;;;;;5063448;28;20009;-43
2023/01/12 09:33:16;;;;;;;;;;;;;;;;;;5064376;28;20282;-49
2023/01/12 09:35:43;;;;;;;;;;;;;;;;;;5065040;28;19970;-48
2023/01/12 09:38:08;;;;;;;;;;;;;;;;;;5066878;28;20321;-43
2023/01/12 09:40:34;;;;;;;;;;;;;;;;;;5065323;28;19927;-43
2023/01/12 09:48:29;;;;;;;;;;;;;;;;;;5070149;28;19932;-43
2023/01/12 09:51:02;;;;;;;;;;;;;;;;;;5062582;28;20045;-43
2023/01/12 09:53:30;;;;;;;;;;;;;;;;;;5067324;28;19969;-45
2023/01/12 09:56:01;;;;;;;;;;;;;;;;;;5063354;28;19925;-44
2023/01/12 09:58:32;;;;;;;;;;;;;;;;;;5064025;28;19928;-46
2023/01/12 10:01:00;;;;;;;;;;;;;;;;;;5065548;28;19927;-43
2023/01/12 10:03:34;;;;;;;;;;;;;;;;;;5066174;28;19924;-43
2023/01/12 10:06:00;;;;;;;;;;;;;;;;;;5066666;28;20285;-44
2023/01/12 10:08:43;;;;;;;;;;;;;;;;;;5067268;28;19925;-43
2023/01/12 10:11:20;;;;;;;;;;;;;;;;;;5060850;28;19920;-46
2023/01/12 10:14:08;;;;;;;;;;;;;;;;;;5064067;28;19924;-46
2023/01/12 10:16:39;;;;;;;;;;;;;;;;;;5063303;28;20336;-43
2023/01/12 10:19:25;;;;;;;;;;;;;;;;;;5064746;28;20380;-42
2023/01/12 10:21:51;;;;;;;;;;;;;;;;;;5054984;28;19924;-50
2023/01/12 10:24:20;;;;;;;;;;;;;;;;;;5065103;28;19928;-43
2023/01/12 10:26:46;;;;;;;;;;;;;;;;;;5063784;28;19930;-43
2023/01/12 10:29:11;;;;;;;;;;;;;;;;;;5063375;28;19928;-43
2023/01/12 10:31:36;;;;;;;;;;;;;;;;;;5062034;28;19920;-48
2023/01/12 10:34:06;;;;;;;;;;;;;;;;;;5065780;28;20384;-46
2023/01/12 10:36:33;;;;;;;;;;;;;;;;;;5065122;28;19925;-48
2023/01/12 10:39:02;;;;;;;;;;;;;;;;;;5062727;28;19929;-48
2023/01/12 10:41:28;;;;;;;;;;;;;;;;;;5066739;28;20030;-46
2023/01/12 10:43:53;;;;;;;;;;;;;;;;;;5060574;28;20057;-43
2023/01/12 10:46:21;;;;;;;;;;;;;;;;;;5066642;28;20019;-43
2023/01/12 10:48:50;;;;;;;;;;;;;;;;;;5064259;28;19928;-50
2023/01/12 10:51:23;;;;;;;;;;;;;;;;;;5067168;28;20639;-51
2023/01/12 10:53:54;;;;;;;;;;;;;;;;;;5068419;28;20016;-47
2023/01/12 10:56:32;;;;;;;;;;;;;;;;;;5066901;28;19939;-44
2023/01/12 10:59:02;;;;;;;;;;;;;;;;;;5066939;28;19924;-43
2023/01/12 11:01:44;;;;;;;;;;;;;;;;;;5069805;28;19920;-42
2023/01/12 11:04:13;;;;;;;;;;;;;;;;;;5066682;28;19971;-48
2023/01/12 11:06:41;;;;;;;;;;;;;;;;;;5066460;28;19924;-49
2023/01/12 11:09:16;;;;;;;;;;;;;;;;;;5068600;28;19925;-50
2023/01/12 11:11:41;;;;;;;;;;;;;;;;;;5065655;28;19921;-49
2023/01/12 11:14:17;;;;;;;;;;;;;;;;;;5069171;28;19951;-47
2023/01/12 11:16:51;;;;;;;;;;;;;;;;;;5065226;28;19934;-50
2023/01/12 11:19:16;;;;;;;;;;;;;;;;;;5068196;28;20335;-45
2023/01/12 11:21:44;;;;;;;;;;;;;;;;;;5071623;28;19924;-49
2023/01/12 11:24:30;;;;;;;;;;;;;;;;;;5067281;28;19932;-50
2023/01/12 11:26:58;;;;;;;;;;;;;;;;;;5067337;28;19924;-44
2023/01/12 11:29:26;;;;;;;;;;;;;;;;;;5069506;28;19924;-49
2023/01/12 11:31:58;;;;;;;;;;;;;;;;;;5068436;28;19920;-52
2023/01/12 11:34:28;;;;;;;;;;;;;;;;;;5069820;28;19924;-47
2023/01/12 11:36:57;;;;;;;;;;;;;;;;;;5068126;28;19936;-50
2023/01/12 11:39:24;;;;;;;;;;;;;;;;;;5065183;28;19928;-52
2023/01/12 11:44:54;;;;;;;;;;;;;;;;;;5068643;28;19978;-44
2023/01/12 11:47:38;;;;;;;;;;;;;;;;;;5066707;28;19920;-46
2023/01/12 11:50:12;;;;;;;;;;;;;;;;;;5067331;28;20304;-44
2023/01/12 11:52:38;;;;;;;;;;;;;;;;;;5070811;28;20418;-49
2023/01/12 11:55:03;;;;;;;;;;;;;;;;;;5067834;28;20011;-45
2023/01/12 11:57:37;;;;;;;;;;;;;;;;;;5066918;28;19924;-48
2023/01/12 12:00:14;;;;;;;;;;;;;;;;;;5064482;28;20007;-48
2023/01/12 12:02:43;;;;;;;;;;;;;;;;;;5068588;28;19924;-51
2023/01/12 12:05:26;;;;;;;;;;;;;;;;;;5066067;28;19920;-46
2023/01/12 12:07:54;;;;;;;;;;;;;;;;;;5069372;28;19920;-50
2023/01/12 12:10:21;;;;;;;;;;;;;;;;;;5067368;28;19920;-44
2023/01/12 12:13:04;;;;;;;;;;;;;;;;;;5066670;28;19935;-51
2023/01/12 12:15:37;;;;;;;;;;;;;;;;;;5069200;28;19928;-50
2023/01/12 12:18:14;;;;;;;;;;;;;;;;;;5063722;28;19932;-44
2023/01/12 12:21:01;;;;;;;;;;;;;;;;;;5066870;28;19928;-43
2023/01/12 12:23:44;;;;;;;;;;;;;;;;;;5067071;28;20338;-49
2023/01/12 12:26:13;;;;;;;;;;;;;;;;;;5064685;28;19916;-47
2023/01/12 12:28:38;;;;;;;;;;;;;;;;;;5067465;28;19931;-45
2023/01/12 12:31:22;;;;;;;;;;;;;;;;;;5069559;28;20296;-49
2023/01/12 12:33:56;;;;;;;;;;;;;;;;;;5066413;28;19999;-45
2023/01/12 12:36:40;;;;;;;;;;;;;;;;;;5066635;28;19935;-46
2023/01/12 12:39:08;;;;;;;;;;;;;;;;;;5067063;28;19932;-45
2023/01/12 12:47:23;;;;;;;;;;;;;;;;;;5074259;28;19966;-44
2023/01/12 12:49:49;;;;;;;;;;;;;;;;;;5071182;28;19931;-46
2023/01/12 12:52:15;;;;;;;;;;;;;;;;;;5077305;28;20380;-43
2023/01/12 12:54:40;;;;;;;;;;;;;;;;;;5071637;28;19940;-42
2023/01/12 12:57:05;;;;;;;;;;;;;;;;;;5084450;28;20406;-43
2023/01/12 12:59:30;;;;;;;;;;;;;;;;;;5077627;28;19932;-46
2023/01/12 13:01:58;;;;;;;;;;;;;;;;;;5074168;28;19920;-45
2023/01/12 13:04:42;;;;;;;;;;;;;;;;;;5076455;28;19931;-43
2023/01/12 13:07:12;;;;;;;;;;;;;;;;;;5069983;28;19943;-47
2023/01/12 13:09:37;;;;;;;;;;;;;;;;;;5069346;28;20002;-44
2023/01/12 13:12:03;;;;;;;;;;;;;;;;;;5075176;28;19966;-45
2023/01/12 13:14:29;;;;;;;;;;;;;;;;;;5077165;28;19977;-48
2023/01/12 13:16:57;;;;;;;;;;;;;;;;;;5061739;28;20377;-45
2023/01/12 13:19:43;;;;;;;;;;;;;;;;;;5075611;28;20446;-49
2023/01/12 13:22:26;;;;;;;;;;;;;;;;;;5009726;28;20064;-44
2023/01/12 13:24:52;;;;;;;;;;;;;;;;;;5010772;28;20333;-43
2023/01/12 13:27:36;;;;;;;;;;;;;;;;;;5012146;28;19928;-46
2023/01/12 13:30:17;;;;;;;;;;;;;;;;;;5016055;28;19972;-46
2023/01/12 13:32:48;;;;;;;;;;;;;;;;;;5013416;28;19979;-43
2023/01/12 13:35:22;;;;;;;;;;;;;;;;;;5011675;28;19929;-43
2023/01/12 13:37:56;;;;;;;;;;;;;;;;;;5013949;28;19925;-43
2023/01/12 13:40:25;;;;;;;;;;;;;;;;;;5013416;28;19925;-46
2023/01/12 13:45:38;;;;;;;;;;;;;;;;;;5014955;28;19989;-48
2023/01/12 13:48:05;;;;;;;;;;;;;;;;;;5004416;28;19932;-45
2023/01/12 13:50:30;;;;;;;;;;;;;;;;;;5011596;28;19964;-46
2023/01/12 13:52:59;;;;;;;;;;;;;;;;;;5010904;28;19973;-50
2023/01/12 13:55:29;;;;;;;;;;;;;;;;;;5008083;28;19925;-46
2023/01/12 13:58:00;;;;;;;;;;;;;;;;;;5014225;28;20008;-43
2023/01/12 14:00:26;;;;;;;;;;;;;;;;;;5069582;28;20329;-48
2023/01/12 14:02:52;;;;;;;;;;;;;;;;;;5072598;28;20023;-46
2023/01/12 14:05:29;;;;;;;;;;;;;;;;;;5071025;28;19928;-43
2023/01/12 14:08:24;;;;;;;;;;;;;;;;;;5075023;28;19924;-47
2023/01/12 14:10:58;;;;;;;;;;;;;;;;;;5054889;28;19935;-46
2023/01/12 14:13:23;;;;;;;;;;;;;;;;;;5069933;28;19925;-45
2023/01/12 14:18:43;;;;;;;;;;;;;;;;;;5078064;28;19936;-46
2023/01/12 14:21:42;;;;;;;;;;;;;;;;;;5068494;28;19921;-43
2023/01/12 14:24:21;;;;;;;;;;;;;;;;;;5069382;28;20381;-46
2023/01/12 14:26:46;;;;;;;;;;;;;;;;;;5080082;28;19928;-46
2023/01/12 14:29:12;;;;;;;;;;;;;;;;;;5082791;28;19924;-48
2023/01/12 14:31:44;;;;;;;;;;;;;;;;;;5075007;28;20339;-44
2023/01/12 14:34:36;;;;;;;;;;;;;;;;;;5078103;28;20659;-44
2023/01/12 14:37:16;;;;;;;;;;;;;;;;;;5078388;28;20392;-43
2023/01/12 14:39:45;;;;;;;;;;;;;;;;;;5069306;28;19924;-46
2023/01/12 14:47:43;;;;;;;;;;;;;;;;;;5076875;28;20401;-44
2023/01/12 14:50:11;;;;;;;;;;;;;;;;;;5078299;28;19968;-44
2023/01/12 14:52:37;;;;;;;;;;;;;;;;;;5072450;28;19924;-46
2023/01/12 14:55:17;;;;;;;;;;;;;;;;;;5068061;28;19928;-44
2023/01/12 14:57:46;;;;;;;;;;;;;;;;;;5074994;28;20392;-46
2023/01/12 15:00:18;;;;;;;;;;;;;;;;;;5072689;28;19928;-44
2023/01/12 15:02:47;;;;;;;;;;;;;;;;;;5073262;28;19944;-43
2023/01/12 15:05:18;;;;;;;;;;;;;;;;;;5074978;28;19935;-44
2023/01/12 15:07:54;;;;;;;;;;;;;;;;;;5081227;28;19977;-49
2023/01/12 15:10:19;;;;;;;;;;;;;;;;;;5073079;28;20316;-43
2023/01/12 15:12:49;;;;;;;;;;;;;;;;;;5076274;28;19929;-43
2023/01/12 15:15:14;;;;;;;;;;;;;;;;;;5081864;28;19920;-43
2023/01/12 15:25:56;;;;;;;;;;;;;;;;;;5077919;28;19962;-44
2023/01/12 15:28:21;;;;;;;;;;;;;;;;;;5076212;28;20349;-46
2023/01/12 15:30:46;;;;;;;;;;;;;;;;;;5074781;28;19924;-45
2023/01/12 15:33:12;;;;;;;;;;;;;;;;;;5070136;28;19936;-44
2023/01/12 15:35:40;;;;;;;;;;;;;;;;;;5071824;28;19939;-44
2023/01/12 15:38:05;;;;;;;;;;;;;;;;;;5069317;28;19928;-45
2023/01/12 15:40:33;;;;;;;;;;;;;;;;;;5073525;28;19939;-44
2023/01/12 15:42:58;;;;;;;;;;;;;;;;;;5065611;28;20441;-45
2023/01/12 15:45:34;;;;;;;;;;;;;;;;;;5078112;28;19920;-44
2023/01/12 15:48:00;;;;;;;;;;;;;;;;;;5067310;28;19924;-44
2023/01/12 15:50:25;;;;;;;;;;;;;;;;;;5079496;28;19927;-45
2023/01/12 15:52:51;;;;;;;;;;;;;;;;;;5072340;28;20031;-46
2023/01/12 15:55:18;;;;;;;;;;;;;;;;;;5076625;28;19924;-44
2023/01/12 15:57:43;;;;;;;;;;;;;;;;;;5080720;28;19940;-44
2023/01/12 16:00:12;;;;;;;;;;;;;;;;;;5075401;28;19920;-44
2023/01/12 16:02:38;;;;;;;;;;;;;;;;;;5069092;28;19952;-46
2023/01/12 16:05:04;;;;;;;;;;;;;;;;;;5073873;28;19926;-44
2023/01/12 16:07:29;;;;;;;;;;;;;;;;;;5067401;28;19933;-44
2023/01/12 16:09:55;;;;;;;;;;;;;;;;;;5078197;28;19944;-43
2023/01/12 16:12:20;;;;;;;;;;;;;;;;;;5075125;28;19921;-43
2023/01/12 16:14:45;;;;;;;;;;;;;;;;;;5072932;28;20368;-48
2023/01/12 16:17:11;;;;;;;;;;;;;;;;;;5074551;28;19940;-43
2023/01/12 16:19:40;;;;;;;;;;;;;;;;;;5073167;28;19917;-47
2023/01/12 16:22:13;;;;;;;;;;;;;;;;;;5070406;28;19956;-46
2023/01/12 16:24:38;;;;;;;;;;;;;;;;;;5063920;28;19924;-43
2023/01/12 16:27:04;;;;;;;;;;;;;;;;;;5066584;28;19921;-51
2023/01/12 16:29:29;;;;;;;;;;;;;;;;;;5065028;28;19936;-46
2023/01/12 16:31:54;;;;;;;;;;;;;;;;;;5067229;28;20376;-46
2023/01/12 16:34:22;;;;;;;;;;;;;;;;;;5081099;28;19924;-43
2023/01/12 16:36:47;;;;;;;;;;;;;;;;;;5069520;28;19924;-46
2023/01/12 16:39:12;;;;;;;;;;;;;;;;;;5072132;28;19951;-46
2023/01/12 16:41:38;;;;;;;;;;;;;;;;;;5073695;28;20012;-44
2023/01/12 16:44:03;;;;;;;;;;;;;;;;;;5075526;28;19924;-44
2023/01/12 16:46:28;;;;;;;;;;;;;;;;;;5075031;28;20417;-43
2023/01/12 16:48:55;;;;;;;;;;;;;;;;;;5074758;28;19935;-43
2023/01/12 16:51:20;;;;;;;;;;;;;;;;;;5075937;28;19928;-47
2023/01/12 16:53:50;;;;;;;;;;;;;;;;;;5100537;27;20633;-44
2023/01/12 16:56:15;;;;;;;;;;;;;;;;;;5073974;28;20369;-44
2023/01/12 16:58:46;;;;;;;;;;;;;;;;;;5076045;28;19924;-46
2023/01/12 17:01:12;;;;;;;;;;;;;;;;;;5071653;28;19928;-43
2023/01/12 17:03:40;;;;;;;;;;;;;;;;;;5069061;28;19924;-44
2023/01/12 17:06:06;;;;;;;;;;;;;;;;;;5075860;28;20477;-44
2023/01/12 17:08:31;;;;;;;;;;;;;;;;;;5071929;28;21854;-43
2023/01/12 17:11:02;;;;;;;;;;;;;;;;;;5067795;28;20431;-43
2023/01/12 17:13:29;;;;;;;;;;;;;;;;;;5076132;28;20030;-46
2023/01/12 17:15:54;;;;;;;;;;;;;;;;;;5070247;28;19924;-43
2023/01/12 17:18:19;;;;;;;;;;;;;;;;;;5073320;28;19932;-43
2023/01/12 17:20:45;;;;;;;;;;;;;;;;;;5073101;28;20395;-43
2023/01/12 17:23:10;;;;;;;;;;;;;;;;;;5070243;28;19976;-43
2023/01/12 17:25:35;;;;;;;;;;;;;;;;;;5076135;28;19924;-44
2023/01/12 17:28:01;;;;;;;;;;;;;;;;;;5073324;28;19924;-49
2023/01/12 17:30:26;;;;;;;;;;;;;;;;;;5074896;28;19936;-42
2023/01/12 17:32:51;;;;;;;;;;;;;;;;;;5070297;28;20361;-43
2023/01/12 17:35:17;;;;;;;;;;;;;;;;;;5068721;28;19951;-44
2023/01/12 17:37:42;;;;;;;;;;;;;;;;;;5076775;28;19928;-44
2023/01/12 17:40:07;;;;;;;;;;;;;;;;;;5059042;28;20011;-43
2023/01/12 17:45:17;;;;;;;;;;;;;;;;;;5072287;28;19970;-43
2023/01/12 17:47:42;;;;;;;;;;;;;;;;;;5066358;28;19967;-47
2023/01/12 17:50:08;;;;;;;;;;;;;;;;;;5075455;28;19931;-46
2023/01/12 17:52:33;;;;;;;;;;;;;;;;;;5065842;28;19931;-47
2023/01/12 17:54:58;;;;;;;;;;;;;;;;;;5071709;28;20392;-44
2023/01/12 17:57:25;;;;;;;;;;;;;;;;;;5052955;28;19927;-47